sensor_id;sensor_type;location;lat;lon;timestamp;temperature;humidity
74153;DHT22;62505;46.070;14.492;2023-12-04T00:01:13;22.00;71.70
74153;DHT22;62505;46.070;14.492;2023-12-04T00:03:40;22.00;71.80
74153;DHT22;62505;46.070;14.492;2023-12-04T00:06:07;22.00;71.50
74153;DHT22;62505;46.070;14.492;2023-12-04T00:08:36;22.00;71.80
74153;DHT22;62505;46.070;14.492;2023-12-04T00:11:03;22.00;72.00
74153;DHT22;62505;46.070;14.492;2023-12-04T00:13:32;22.00;71.90
74153;DHT22;62505;46.070;14.492;2023-12-04T00:16:00;22.00;71.50
74153;DHT22;62505;46.070;14.492;2023-12-04T00:18:27;22.00;71.70
74153;DHT22;62505;46.070;14.492;2023-12-04T00:20:54;22.00;71.90
74153;DHT22;62505;46.070;14.492;2023-12-04T00:23:21;22.00;71.80
74153;DHT22;62505;46.070;14.492;2023-12-04T00:25:48;22.00;71.20
74153;DHT22;62505;46.070;14.492;2023-12-04T00:28:15;22.00;71.90
74153;DHT22;62505;46.070;14.492;2023-12-04T00:30:44;22.00;71.40
74153;DHT22;62505;46.070;14.492;2023-12-04T00:33:11;22.00;71.20
74153;DHT22;62505;46.070;14.492;2023-12-04T00:35:38;22.00;71.20
74153;DHT22;62505;46.070;14.492;2023-12-04T00:38:06;22.00;71.30
74153;DHT22;62505;46.070;14.492;2023-12-04T00:40:33;22.00;71.00
74153;DHT22;62505;46.070;14.492;2023-12-04T00:43:00;22.00;71.30
74153;DHT22;62505;46.070;14.492;2023-12-04T00:45:27;22.00;71.00
74153;DHT22;62505;46.070;14.492;2023-12-04T00:47:55;22.00;71.20
74153;DHT22;62505;46.070;14.492;2023-12-04T00:50:22;22.00;71.00
74153;DHT22;62505;46.070;14.492;2023-12-04T00:52:50;22.00;70.80
74153;DHT22;62505;46.070;14.492;2023-12-04T00:55:17;22.00;71.20
74153;DHT22;62505;46.070;14.492;2023-12-04T00:57:44;22.00;70.90
74153;DHT22;62505;46.070;14.492;2023-12-04T01:00:12;22.00;70.80
74153;DHT22;62505;46.070;14.492;2023-12-04T01:02:40;22.00;70.80
74153;DHT22;62505;46.070;14.492;2023-12-04T01:05:09;22.00;71.20
74153;DHT22;62505;46.070;14.492;2023-12-04T01:07:36;22.00;71.20
74153;DHT22;62505;46.070;14.492;2023-12-04T01:10:04;22.00;71.20
74153;DHT22;62505;46.070;14.492;2023-12-04T01:12:31;22.00;70.90
74153;DHT22;62505;46.070;14.492;2023-12-04T01:14:58;22.00;70.90
74153;DHT22;62505;46.070;14.492;2023-12-04T01:17:25;22.00;70.70
74153;DHT22;62505;46.070;14.492;2023-12-04T01:19:52;22.00;71.50
74153;DHT22;62505;46.070;14.492;2023-12-04T01:22:21;22.00;71.50
74153;DHT22;62505;46.070;14.492;2023-12-04T01:24:48;22.00;71.20
74153;DHT22;62505;46.070;14.492;2023-12-04T01:27:15;22.00;71.40
74153;DHT22;62505;46.070;14.492;2023-12-04T01:29:42;22.00;71.60
74153;DHT22;62505;46.070;14.492;2023-12-04T01:32:09;22.00;71.30
74153;DHT22;62505;46.070;14.492;2023-12-04T01:34:36;22.00;71.40
74153;DHT22;62505;46.070;14.492;2023-12-04T01:37:04;22.00;71.10
74153;DHT22;62505;46.070;14.492;2023-12-04T01:39:32;22.00;71.50
74153;DHT22;62505;46.070;14.492;2023-12-04T01:41:59;22.00;71.40
74153;DHT22;62505;46.070;14.492;2023-12-04T01:44:27;22.00;71.40
74153;DHT22;62505;46.070;14.492;2023-12-04T01:46:54;22.00;71.30
74153;DHT22;62505;46.070;14.492;2023-12-04T01:49:21;22.00;71.00
74153;DHT22;62505;46.070;14.492;2023-12-04T01:51:49;22.00;71.10
74153;DHT22;62505;46.070;14.492;2023-12-04T01:54:16;22.00;71.30
74153;DHT22;62505;46.070;14.492;2023-12-04T01:56:46;22.00;71.30
74153;DHT22;62505;46.070;14.492;2023-12-04T01:59:13;22.00;71.40
74153;DHT22;62505;46.070;14.492;2023-12-04T02:01:41;22.00;71.20
74153;DHT22;62505;46.070;14.492;2023-12-04T02:04:09;22.00;71.20
74153;DHT22;62505;46.070;14.492;2023-12-04T02:06:36;22.00;70.90
74153;DHT22;62505;46.070;14.492;2023-12-04T02:09:03;22.00;71.20
74153;DHT22;62505;46.070;14.492;2023-12-04T02:11:32;22.00;70.90
74153;DHT22;62505;46.070;14.492;2023-12-04T02:14:01;22.00;71.00
74153;DHT22;62505;46.070;14.492;2023-12-04T02:16:29;22.00;71.30
74153;DHT22;62505;46.070;14.492;2023-12-04T02:18:57;22.00;71.00
74153;DHT22;62505;46.070;14.492;2023-12-04T02:21:24;22.00;71.00
74153;DHT22;62505;46.070;14.492;2023-12-04T02:23:53;22.00;71.20
74153;DHT22;62505;46.070;14.492;2023-12-04T02:26:24;22.00;71.10
74153;DHT22;62505;46.070;14.492;2023-12-04T02:28:57;22.00;71.30
74153;DHT22;62505;46.070;14.492;2023-12-04T02:31:26;22.00;71.00
74153;DHT22;62505;46.070;14.492;2023-12-04T02:33:55;22.00;71.20
74153;DHT22;62505;46.070;14.492;2023-12-04T02:36:24;22.00;71.10
74153;DHT22;62505;46.070;14.492;2023-12-04T02:38:54;22.00;70.90
74153;DHT22;62505;46.070;14.492;2023-12-04T02:41:22;22.00;71.10
74153;DHT22;62505;46.070;14.492;2023-12-04T02:43:49;22.00;70.80
74153;DHT22;62505;46.070;14.492;2023-12-04T02:46:16;22.00;70.70
74153;DHT22;62505;46.070;14.492;2023-12-04T02:48:43;22.00;70.90
74153;DHT22;62505;46.070;14.492;2023-12-04T02:51:11;22.00;70.80
74153;DHT22;62505;46.070;14.492;2023-12-04T02:53:38;22.10;71.00
74153;DHT22;62505;46.070;14.492;2023-12-04T02:56:07;22.00;71.10
74153;DHT22;62505;46.070;14.492;2023-12-04T02:58:34;22.00;70.90
74153;DHT22;62505;46.070;14.492;2023-12-04T03:01:01;22.00;70.90
74153;DHT22;62505;46.070;14.492;2023-12-04T03:03:28;22.00;71.00
74153;DHT22;62505;46.070;14.492;2023-12-04T03:05:55;22.00;70.90
74153;DHT22;62505;46.070;14.492;2023-12-04T03:08:23;22.00;71.10
74153;DHT22;62505;46.070;14.492;2023-12-04T03:10:50;22.00;70.90
74153;DHT22;62505;46.070;14.492;2023-12-04T03:13:18;22.00;71.00
74153;DHT22;62505;46.070;14.492;2023-12-04T03:15:45;22.00;70.90
74153;DHT22;62505;46.070;14.492;2023-12-04T03:18:12;22.00;71.20
74153;DHT22;62505;46.070;14.492;2023-12-04T03:20:39;22.00;71.20
74153;DHT22;62505;46.070;14.492;2023-12-04T03:23:06;22.00;71.00
74153;DHT22;62505;46.070;14.492;2023-12-04T03:25:33;22.00;70.70
74153;DHT22;62505;46.070;14.492;2023-12-04T03:28:00;22.00;70.80
74153;DHT22;62505;46.070;14.492;2023-12-04T03:30:29;22.00;71.20
74153;DHT22;62505;46.070;14.492;2023-12-04T03:32:56;22.00;71.00
74153;DHT22;62505;46.070;14.492;2023-12-04T03:35:23;22.00;70.90
74153;DHT22;62505;46.070;14.492;2023-12-04T03:37:51;22.00;70.90
74153;DHT22;62505;46.070;14.492;2023-12-04T03:40:18;22.00;71.00
74153;DHT22;62505;46.070;14.492;2023-12-04T03:42:45;22.00;70.90
74153;DHT22;62505;46.070;14.492;2023-12-04T03:45:12;22.10;70.60
74153;DHT22;62505;46.070;14.492;2023-12-04T03:47:40;22.00;71.00
74153;DHT22;62505;46.070;14.492;2023-12-04T03:50:08;22.00;70.80
74153;DHT22;62505;46.070;14.492;2023-12-04T03:52:35;22.10;71.10
74153;DHT22;62505;46.070;14.492;2023-12-04T03:55:02;22.00;70.80
74153;DHT22;62505;46.070;14.492;2023-12-04T03:57:29;22.00;70.90
74153;DHT22;62505;46.070;14.492;2023-12-04T03:59:56;22.00;70.90
74153;DHT22;62505;46.070;14.492;2023-12-04T04:02:24;22.00;70.60
74153;DHT22;62505;46.070;14.492;2023-12-04T04:04:52;22.00;70.70
74153;DHT22;62505;46.070;14.492;2023-12-04T04:07:20;22.00;70.80
74153;DHT22;62505;46.070;14.492;2023-12-04T04:09:47;22.00;70.90
74153;DHT22;62505;46.070;14.492;2023-12-04T04:12:14;22.00;70.80
74153;DHT22;62505;46.070;14.492;2023-12-04T04:14:41;22.00;70.80
74153;DHT22;62505;46.070;14.492;2023-12-04T04:17:08;22.00;70.80
74153;DHT22;62505;46.070;14.492;2023-12-04T04:19:35;22.00;70.90
74153;DHT22;62505;46.070;14.492;2023-12-04T04:22:03;22.00;70.40
74153;DHT22;62505;46.070;14.492;2023-12-04T04:24:31;22.00;70.70
74153;DHT22;62505;46.070;14.492;2023-12-04T04:26:58;22.00;70.80
74153;DHT22;62505;46.070;14.492;2023-12-04T04:29:25;22.00;70.90
74153;DHT22;62505;46.070;14.492;2023-12-04T04:31:52;22.00;70.90
74153;DHT22;62505;46.070;14.492;2023-12-04T04:34:20;22.00;70.90
74153;DHT22;62505;46.070;14.492;2023-12-04T04:36:48;22.00;70.70
74153;DHT22;62505;46.070;14.492;2023-12-04T04:39:16;22.00;70.50
74153;DHT22;62505;46.070;14.492;2023-12-04T04:41:44;22.00;69.90
74153;DHT22;62505;46.070;14.492;2023-12-04T04:44:11;22.10;70.00
74153;DHT22;62505;46.070;14.492;2023-12-04T04:46:38;22.10;70.00
74153;DHT22;62505;46.070;14.492;2023-12-04T04:49:06;22.10;69.80
74153;DHT22;62505;46.070;14.492;2023-12-04T04:51:33;22.10;69.60
74153;DHT22;62505;46.070;14.492;2023-12-04T04:54:00;22.10;69.60
74153;DHT22;62505;46.070;14.492;2023-12-04T04:56:29;22.10;69.60
74153;DHT22;62505;46.070;14.492;2023-12-04T04:58:56;22.10;69.60
74153;DHT22;62505;46.070;14.492;2023-12-04T05:01:24;22.20;69.60
74153;DHT22;62505;46.070;14.492;2023-12-04T05:03:51;22.20;69.40
74153;DHT22;62505;46.070;14.492;2023-12-04T05:06:18;22.20;69.60
74153;DHT22;62505;46.070;14.492;2023-12-04T05:08:45;22.10;69.40
74153;DHT22;62505;46.070;14.492;2023-12-04T05:11:14;22.20;69.40
74153;DHT22;62505;46.070;14.492;2023-12-04T05:13:44;22.20;69.80
74153;DHT22;62505;46.070;14.492;2023-12-04T05:16:11;22.20;70.30
74153;DHT22;62505;46.070;14.492;2023-12-04T05:18:39;22.10;70.30
74153;DHT22;62505;46.070;14.492;2023-12-04T05:21:09;22.10;74.00
74153;DHT22;62505;46.070;14.492;2023-12-04T05:23:36;22.20;75.30
74153;DHT22;62505;46.070;14.492;2023-12-04T05:26:04;22.20;74.30
74153;DHT22;62505;46.070;14.492;2023-12-04T05:28:31;22.20;74.30
74153;DHT22;62505;46.070;14.492;2023-12-04T05:31:00;22.20;74.20
74153;DHT22;62505;46.070;14.492;2023-12-04T05:33:27;22.30;74.40
74153;DHT22;62505;46.070;14.492;2023-12-04T05:35:54;22.30;74.10
74153;DHT22;62505;46.070;14.492;2023-12-04T05:38:21;22.30;73.80
74153;DHT22;62505;46.070;14.492;2023-12-04T05:40:48;22.30;73.80
74153;DHT22;62505;46.070;14.492;2023-12-04T05:43:15;22.30;73.70
74153;DHT22;62505;46.070;14.492;2023-12-04T05:45:42;22.30;73.90
74153;DHT22;62505;46.070;14.492;2023-12-04T05:48:11;22.30;73.90
74153;DHT22;62505;46.070;14.492;2023-12-04T05:50:38;22.30;74.00
74153;DHT22;62505;46.070;14.492;2023-12-04T05:53:06;22.30;74.00
74153;DHT22;62505;46.070;14.492;2023-12-04T05:55:33;22.30;74.10
74153;DHT22;62505;46.070;14.492;2023-12-04T05:58:00;22.30;74.20
74153;DHT22;62505;46.070;14.492;2023-12-04T06:00:27;22.30;74.40
74153;DHT22;62505;46.070;14.492;2023-12-04T06:02:55;22.30;73.90
74153;DHT22;62505;46.070;14.492;2023-12-04T06:05:23;22.30;73.70
74153;DHT22;62505;46.070;14.492;2023-12-04T06:07:50;22.30;73.60
74153;DHT22;62505;46.070;14.492;2023-12-04T06:10:17;22.30;74.00
74153;DHT22;62505;46.070;14.492;2023-12-04T06:12:44;22.30;74.00
74153;DHT22;62505;46.070;14.492;2023-12-04T06:15:11;22.30;73.90
74153;DHT22;62505;46.070;14.492;2023-12-04T06:17:39;22.20;73.70
74153;DHT22;62505;46.070;14.492;2023-12-04T06:20:07;22.30;73.80
74153;DHT22;62505;46.070;14.492;2023-12-04T06:22:39;22.30;73.80
74153;DHT22;62505;46.070;14.492;2023-12-04T06:25:07;22.30;73.50
74153;DHT22;62505;46.070;14.492;2023-12-04T06:27:35;22.30;73.70
74153;DHT22;62505;46.070;14.492;2023-12-04T06:30:05;22.30;73.50
74153;DHT22;62505;46.070;14.492;2023-12-04T06:32:33;22.30;73.40
74153;DHT22;62505;46.070;14.492;2023-12-04T06:35:00;22.20;73.30
74153;DHT22;62505;46.070;14.492;2023-12-04T06:37:29;22.20;72.90
74153;DHT22;62505;46.070;14.492;2023-12-04T06:40:00;22.20;73.30
74153;DHT22;62505;46.070;14.492;2023-12-04T06:42:28;22.30;73.10
74153;DHT22;62505;46.070;14.492;2023-12-04T06:44:55;22.20;73.00
74153;DHT22;62505;46.070;14.492;2023-12-04T06:47:23;22.20;72.70
74153;DHT22;62505;46.070;14.492;2023-12-04T06:49:50;22.20;72.90
74153;DHT22;62505;46.070;14.492;2023-12-04T06:52:17;22.20;73.30
74153;DHT22;62505;46.070;14.492;2023-12-04T06:54:44;22.20;72.60
74153;DHT22;62505;46.070;14.492;2023-12-04T06:57:13;22.20;72.60
74153;DHT22;62505;46.070;14.492;2023-12-04T06:59:40;22.20;72.60
74153;DHT22;62505;46.070;14.492;2023-12-04T07:02:07;22.20;73.50
74153;DHT22;62505;46.070;14.492;2023-12-04T07:04:35;22.20;72.60
74153;DHT22;62505;46.070;14.492;2023-12-04T07:07:02;22.20;72.50
74153;DHT22;62505;46.070;14.492;2023-12-04T07:09:31;22.20;72.60
74153;DHT22;62505;46.070;14.492;2023-12-04T07:11:59;22.20;72.70
74153;DHT22;62505;46.070;14.492;2023-12-04T07:14:29;22.20;72.70
74153;DHT22;62505;46.070;14.492;2023-12-04T07:16:56;22.20;72.70
74153;DHT22;62505;46.070;14.492;2023-12-04T07:19:23;22.20;72.40
74153;DHT22;62505;46.070;14.492;2023-12-04T07:21:51;22.20;72.70
74153;DHT22;62505;46.070;14.492;2023-12-04T07:24:18;22.20;72.40
74153;DHT22;62505;46.070;14.492;2023-12-04T07:26:45;22.20;72.50
74153;DHT22;62505;46.070;14.492;2023-12-04T07:29:12;22.20;72.50
74153;DHT22;62505;46.070;14.492;2023-12-04T07:31:42;22.20;72.50
74153;DHT22;62505;46.070;14.492;2023-12-04T07:34:09;22.20;72.40
74153;DHT22;62505;46.070;14.492;2023-12-04T07:36:36;22.20;72.30
74153;DHT22;62505;46.070;14.492;2023-12-04T07:39:03;22.20;72.40
74153;DHT22;62505;46.070;14.492;2023-12-04T07:41:32;22.20;72.40
74153;DHT22;62505;46.070;14.492;2023-12-04T07:43:59;22.20;72.50
74153;DHT22;62505;46.070;14.492;2023-12-04T07:46:26;22.20;72.30
74153;DHT22;62505;46.070;14.492;2023-12-04T07:48:54;22.20;72.40
74153;DHT22;62505;46.070;14.492;2023-12-04T07:51:24;22.20;72.30
74153;DHT22;62505;46.070;14.492;2023-12-04T07:53:51;22.20;72.40
74153;DHT22;62505;46.070;14.492;2023-12-04T07:56:19;22.20;72.30
74153;DHT22;62505;46.070;14.492;2023-12-04T07:58:46;22.20;72.30
74153;DHT22;62505;46.070;14.492;2023-12-04T08:01:14;22.20;72.30
74153;DHT22;62505;46.070;14.492;2023-12-04T08:03:41;22.20;72.30
74153;DHT22;62505;46.070;14.492;2023-12-04T08:06:11;22.20;72.40
74153;DHT22;62505;46.070;14.492;2023-12-04T08:08:38;22.20;72.20
74153;DHT22;62505;46.070;14.492;2023-12-04T08:11:06;22.20;72.20
74153;DHT22;62505;46.070;14.492;2023-12-04T08:13:33;22.20;72.20
74153;DHT22;62505;46.070;14.492;2023-12-04T08:16:00;22.20;72.20
74153;DHT22;62505;46.070;14.492;2023-12-04T08:18:27;22.20;72.20
74153;DHT22;62505;46.070;14.492;2023-12-04T08:20:54;22.20;72.20
74153;DHT22;62505;46.070;14.492;2023-12-04T08:23:23;22.20;72.20
74153;DHT22;62505;46.070;14.492;2023-12-04T08:25:50;22.20;72.20
74153;DHT22;62505;46.070;14.492;2023-12-04T08:28:17;22.20;72.20
74153;DHT22;62505;46.070;14.492;2023-12-04T08:30:44;22.20;72.20
74153;DHT22;62505;46.070;14.492;2023-12-04T08:33:11;22.20;72.20
74153;DHT22;62505;46.070;14.492;2023-12-04T08:35:38;22.20;72.10
74153;DHT22;62505;46.070;14.492;2023-12-04T08:38:06;22.20;72.20
74153;DHT22;62505;46.070;14.492;2023-12-04T08:40:34;22.20;72.10
74153;DHT22;62505;46.070;14.492;2023-12-04T08:43:02;22.20;72.10
74153;DHT22;62505;46.070;14.492;2023-12-04T08:45:29;22.20;72.10
74153;DHT22;62505;46.070;14.492;2023-12-04T08:47:56;22.20;72.20
74153;DHT22;62505;46.070;14.492;2023-12-04T08:50:23;22.20;72.10
74153;DHT22;62505;46.070;14.492;2023-12-04T08:52:51;22.20;72.10
74153;DHT22;62505;46.070;14.492;2023-12-04T08:55:18;22.10;72.00
74153;DHT22;62505;46.070;14.492;2023-12-04T08:57:47;22.10;72.00
74153;DHT22;62505;46.070;14.492;2023-12-04T09:00:14;22.10;72.00
74153;DHT22;62505;46.070;14.492;2023-12-04T09:02:42;22.10;72.00
74153;DHT22;62505;46.070;14.492;2023-12-04T09:05:09;22.10;72.00
74153;DHT22;62505;46.070;14.492;2023-12-04T09:07:36;22.10;72.00
74153;DHT22;62505;46.070;14.492;2023-12-04T09:10:03;22.10;71.90
74153;DHT22;62505;46.070;14.492;2023-12-04T09:12:31;22.10;71.80
74153;DHT22;62505;46.070;14.492;2023-12-04T09:15:02;22.10;72.00
74153;DHT22;62505;46.070;14.492;2023-12-04T09:17:30;22.10;71.90
74153;DHT22;62505;46.070;14.492;2023-12-04T09:19:57;22.10;71.90
74153;DHT22;62505;46.070;14.492;2023-12-04T09:22:25;22.10;71.90
74153;DHT22;62505;46.070;14.492;2023-12-04T09:24:52;22.10;71.90
74153;DHT22;62505;46.070;14.492;2023-12-04T09:27:19;22.20;71.90
74153;DHT22;62505;46.070;14.492;2023-12-04T09:29:46;22.20;71.90
74153;DHT22;62505;46.070;14.492;2023-12-04T09:32:14;22.10;71.80
74153;DHT22;62505;46.070;14.492;2023-12-04T09:34:41;22.10;71.80
74153;DHT22;62505;46.070;14.492;2023-12-04T09:37:08;22.20;71.80
74153;DHT22;62505;46.070;14.492;2023-12-04T09:39:36;22.10;71.70
74153;DHT22;62505;46.070;14.492;2023-12-04T09:42:03;22.10;71.80
74153;DHT22;62505;46.070;14.492;2023-12-04T09:44:31;22.10;71.60
74153;DHT22;62505;46.070;14.492;2023-12-04T09:46:59;22.10;71.70
74153;DHT22;62505;46.070;14.492;2023-12-04T09:49:31;22.10;71.60
74153;DHT22;62505;46.070;14.492;2023-12-04T09:51:58;22.10;71.60
74153;DHT22;62505;46.070;14.492;2023-12-04T09:54:28;22.20;71.70
74153;DHT22;62505;46.070;14.492;2023-12-04T09:56:55;22.10;71.60
74153;DHT22;62505;46.070;14.492;2023-12-04T09:59:24;22.10;72.50
74153;DHT22;62505;46.070;14.492;2023-12-04T10:01:52;22.10;71.50
74153;DHT22;62505;46.070;14.492;2023-12-04T10:04:20;22.10;71.50
74153;DHT22;62505;46.070;14.492;2023-12-04T10:06:50;22.10;71.60
74153;DHT22;62505;46.070;14.492;2023-12-04T10:09:18;22.10;71.60
74153;DHT22;62505;46.070;14.492;2023-12-04T10:11:48;22.10;71.50
74153;DHT22;62505;46.070;14.492;2023-12-04T10:14:18;22.10;71.50
74153;DHT22;62505;46.070;14.492;2023-12-04T10:16:46;22.10;71.50
74153;DHT22;62505;46.070;14.492;2023-12-04T10:19:17;22.10;71.20
74153;DHT22;62505;46.070;14.492;2023-12-04T10:21:45;22.10;71.30
74153;DHT22;62505;46.070;14.492;2023-12-04T10:24:30;22.10;71.20
74153;DHT22;62505;46.070;14.492;2023-12-04T10:26:57;22.10;71.40
74153;DHT22;62505;46.070;14.492;2023-12-04T10:29:27;22.10;71.40
74153;DHT22;62505;46.070;14.492;2023-12-04T10:31:57;22.10;71.30
74153;DHT22;62505;46.070;14.492;2023-12-04T10:34:25;22.10;71.20
74153;DHT22;62505;46.070;14.492;2023-12-04T10:36:53;22.10;71.30
74153;DHT22;62505;46.070;14.492;2023-12-04T10:39:22;22.10;71.20
74153;DHT22;62505;46.070;14.492;2023-12-04T10:41:59;22.10;71.20
74153;DHT22;62505;46.070;14.492;2023-12-04T10:44:28;22.10;71.30
74153;DHT22;62505;46.070;14.492;2023-12-04T10:46:56;22.10;71.20
74153;DHT22;62505;46.070;14.492;2023-12-04T10:49:26;22.10;71.30
74153;DHT22;62505;46.070;14.492;2023-12-04T10:51:55;22.10;71.20
74153;DHT22;62505;46.070;14.492;2023-12-04T10:54:24;22.10;71.30
74153;DHT22;62505;46.070;14.492;2023-12-04T10:56:52;22.10;71.20
74153;DHT22;62505;46.070;14.492;2023-12-04T10:59:25;22.10;71.20
74153;DHT22;62505;46.070;14.492;2023-12-04T11:01:56;22.10;71.20
74153;DHT22;62505;46.070;14.492;2023-12-04T11:04:25;22.10;71.20
74153;DHT22;62505;46.070;14.492;2023-12-04T11:06:54;22.10;71.20
74153;DHT22;62505;46.070;14.492;2023-12-04T11:09:23;22.10;71.10
74153;DHT22;62505;46.070;14.492;2023-12-04T11:11:56;22.10;71.10
74153;DHT22;62505;46.070;14.492;2023-12-04T11:14:25;22.10;71.10
74153;DHT22;62505;46.070;14.492;2023-12-04T11:17:02;22.10;70.90
74153;DHT22;62505;46.070;14.492;2023-12-04T11:19:37;22.10;71.00
74153;DHT22;62505;46.070;14.492;2023-12-04T11:22:07;22.10;71.00
74153;DHT22;62505;46.070;14.492;2023-12-04T11:24:36;22.10;71.00
74153;DHT22;62505;46.070;14.492;2023-12-04T11:27:03;22.10;71.00
74153;DHT22;62505;46.070;14.492;2023-12-04T11:29:31;22.10;71.00
74153;DHT22;62505;46.070;14.492;2023-12-04T11:31:59;22.10;70.90
74153;DHT22;62505;46.070;14.492;2023-12-04T11:34:26;22.10;70.90
74153;DHT22;62505;46.070;14.492;2023-12-04T11:36:53;22.10;70.90
74153;DHT22;62505;46.070;14.492;2023-12-04T11:39:21;22.10;70.90
74153;DHT22;62505;46.070;14.492;2023-12-04T11:41:50;22.10;70.90
74153;DHT22;62505;46.070;14.492;2023-12-04T11:44:18;22.10;70.80
74153;DHT22;62505;46.070;14.492;2023-12-04T11:47:05;22.10;70.60
74153;DHT22;62505;46.070;14.492;2023-12-04T11:49:32;22.10;70.60
74153;DHT22;62505;46.070;14.492;2023-12-04T11:52:01;22.10;70.60
74153;DHT22;62505;46.070;14.492;2023-12-04T11:54:57;22.10;70.50
74153;DHT22;62505;46.070;14.492;2023-12-04T11:57:26;22.10;70.60
74153;DHT22;62505;46.070;14.492;2023-12-04T12:00:08;22.10;70.40
74153;DHT22;62505;46.070;14.492;2023-12-04T12:02:38;22.10;70.50
74153;DHT22;62505;46.070;14.492;2023-12-04T12:05:06;22.10;70.40
74153;DHT22;62505;46.070;14.492;2023-12-04T12:07:34;22.10;70.30
74153;DHT22;62505;46.070;14.492;2023-12-04T12:10:03;22.10;70.50
74153;DHT22;62505;46.070;14.492;2023-12-04T12:12:31;22.10;70.40
74153;DHT22;62505;46.070;14.492;2023-12-04T12:14:59;22.10;70.20
74153;DHT22;62505;46.070;14.492;2023-12-04T12:17:26;22.10;70.40
74153;DHT22;62505;46.070;14.492;2023-12-04T12:19:54;22.10;70.30
74153;DHT22;62505;46.070;14.492;2023-12-04T12:22:23;22.10;70.30
74153;DHT22;62505;46.070;14.492;2023-12-04T12:24:50;22.10;70.20
74153;DHT22;62505;46.070;14.492;2023-12-04T12:27:19;22.10;70.10
74153;DHT22;62505;46.070;14.492;2023-12-04T12:29:46;22.10;70.00
74153;DHT22;62505;46.070;14.492;2023-12-04T12:32:13;22.10;70.00
74153;DHT22;62505;46.070;14.492;2023-12-04T12:34:40;22.10;69.90
74153;DHT22;62505;46.070;14.492;2023-12-04T12:37:08;22.10;70.00
74153;DHT22;62505;46.070;14.492;2023-12-04T12:39:36;22.10;69.80
74153;DHT22;62505;46.070;14.492;2023-12-04T12:42:03;22.10;69.90
74153;DHT22;62505;46.070;14.492;2023-12-04T12:44:38;22.10;69.80
74153;DHT22;62505;46.070;14.492;2023-12-04T12:47:06;22.10;69.90
74153;DHT22;62505;46.070;14.492;2023-12-04T12:49:33;22.10;69.90
74153;DHT22;62505;46.070;14.492;2023-12-04T12:52:01;22.10;70.00
74153;DHT22;62505;46.070;14.492;2023-12-04T12:54:28;22.10;69.80
74153;DHT22;62505;46.070;14.492;2023-12-04T12:56:58;22.10;69.80
74153;DHT22;62505;46.070;14.492;2023-12-04T12:59:27;22.10;69.90
74153;DHT22;62505;46.070;14.492;2023-12-04T13:01:56;22.10;69.80
74153;DHT22;62505;46.070;14.492;2023-12-04T13:04:25;22.10;69.80
74153;DHT22;62505;46.070;14.492;2023-12-04T13:06:53;22.10;69.80
74153;DHT22;62505;46.070;14.492;2023-12-04T13:09:20;22.10;69.70
74153;DHT22;62505;46.070;14.492;2023-12-04T13:11:47;22.10;69.80
74153;DHT22;62505;46.070;14.492;2023-12-04T13:14:14;22.10;69.80
74153;DHT22;62505;46.070;14.492;2023-12-04T13:16:41;22.10;69.80
74153;DHT22;62505;46.070;14.492;2023-12-04T13:19:10;22.10;69.50
74153;DHT22;62505;46.070;14.492;2023-12-04T13:21:37;22.10;69.80
74153;DHT22;62505;46.070;14.492;2023-12-04T13:24:05;22.10;69.60
74153;DHT22;62505;46.070;14.492;2023-12-04T13:26:34;22.10;69.60
74153;DHT22;62505;46.070;14.492;2023-12-04T13:29:01;22.10;69.70
74153;DHT22;62505;46.070;14.492;2023-12-04T13:31:28;22.10;69.30
74153;DHT22;62505;46.070;14.492;2023-12-04T13:33:55;22.10;69.60
74153;DHT22;62505;46.070;14.492;2023-12-04T13:36:24;22.10;69.50
74153;DHT22;62505;46.070;14.492;2023-12-04T13:38:52;22.10;69.30
74153;DHT22;62505;46.070;14.492;2023-12-04T13:41:20;22.00;69.50
74153;DHT22;62505;46.070;14.492;2023-12-04T13:44:00;22.10;69.50
74153;DHT22;62505;46.070;14.492;2023-12-04T13:46:28;22.10;69.40
74153;DHT22;62505;46.070;14.492;2023-12-04T13:48:55;22.10;69.50
74153;DHT22;62505;46.070;14.492;2023-12-04T13:51:24;22.10;69.50
74153;DHT22;62505;46.070;14.492;2023-12-04T13:53:52;22.10;69.40
74153;DHT22;62505;46.070;14.492;2023-12-04T13:56:28;22.10;69.40
74153;DHT22;62505;46.070;14.492;2023-12-04T13:59:08;22.10;69.40
74153;DHT22;62505;46.070;14.492;2023-12-04T14:01:42;22.10;69.30
74153;DHT22;62505;46.070;14.492;2023-12-04T14:04:09;22.10;69.10
74153;DHT22;62505;46.070;14.492;2023-12-04T14:06:38;22.10;69.30
74153;DHT22;62505;46.070;14.492;2023-12-04T14:09:05;22.10;69.30
74153;DHT22;62505;46.070;14.492;2023-12-04T14:11:36;22.10;69.30
74153;DHT22;62505;46.070;14.492;2023-12-04T14:14:03;22.10;69.20
74153;DHT22;62505;46.070;14.492;2023-12-04T14:16:30;22.10;69.00
74153;DHT22;62505;46.070;14.492;2023-12-04T14:18:57;22.10;69.30
74153;DHT22;62505;46.070;14.492;2023-12-04T14:21:33;22.10;68.90
74153;DHT22;62505;46.070;14.492;2023-12-04T14:24:03;22.10;69.00
74153;DHT22;62505;46.070;14.492;2023-12-04T14:26:30;22.10;69.20
74153;DHT22;62505;46.070;14.492;2023-12-04T14:28:57;22.10;69.00
74153;DHT22;62505;46.070;14.492;2023-12-04T14:31:27;22.10;69.00
74153;DHT22;62505;46.070;14.492;2023-12-04T14:33:54;22.00;69.00
74153;DHT22;62505;46.070;14.492;2023-12-04T14:36:21;22.00;68.90
74153;DHT22;62505;46.070;14.492;2023-12-04T14:38:48;22.10;69.00
74153;DHT22;62505;46.070;14.492;2023-12-04T14:41:16;22.10;69.00
74153;DHT22;62505;46.070;14.492;2023-12-04T14:43:43;22.10;69.00
74153;DHT22;62505;46.070;14.492;2023-12-04T14:46:11;22.10;68.90
74153;DHT22;62505;46.070;14.492;2023-12-04T14:48:38;22.00;69.00
74153;DHT22;62505;46.070;14.492;2023-12-04T14:51:07;22.00;68.70
74153;DHT22;62505;46.070;14.492;2023-12-04T14:53:36;22.00;69.60
74153;DHT22;62505;46.070;14.492;2023-12-04T14:56:11;22.10;68.90
74153;DHT22;62505;46.070;14.492;2023-12-04T14:58:56;22.00;68.60
74153;DHT22;62505;46.070;14.492;2023-12-04T15:01:46;22.10;68.80
74153;DHT22;62505;46.070;14.492;2023-12-04T15:04:31;22.00;68.70
74153;DHT22;62505;46.070;14.492;2023-12-04T15:07:12;22.00;69.60
74153;DHT22;62505;46.070;14.492;2023-12-04T15:09:56;22.00;68.70
74153;DHT22;62505;46.070;14.492;2023-12-04T15:13:03;22.00;68.80
74153;DHT22;62505;46.070;14.492;2023-12-04T15:16:06;22.00;68.50
74153;DHT22;62505;46.070;14.492;2023-12-04T15:18:59;22.00;68.10
74153;DHT22;62505;46.070;14.492;2023-12-04T15:21:43;22.00;68.10
74153;DHT22;62505;46.070;14.492;2023-12-04T15:24:10;22.00;68.20